Time;durP1;ratioP1;P1;durP2;ratioP2;P2;SDS_P1;SDS_P2;PMS_P1;PMS_P2;Temp;Humidity;BMP_temperature;BMP_pressure;BME280_temperature;BME280_humidity;BME280_pressure;Samples;Min_cycle;Max_cycle;Signal;HPM_P1;HPM_P2
2022/06/07 00:00:54;;;;;;;8.60;5.60;;;;;;;;;;4911228;29;20220;-83
2022/06/07 00:03:22;;;;;;;5.00;4.07;;;;;;;;;;4927742;29;20208;-84
2022/06/07 00:05:51;;;;;;;6.67;4.93;;;;;;;;;;4885818;29;20219;-83
2022/06/07 00:08:19;;;;;;;6.07;4.10;;;;;;;;;;4883337;29;20217;-83
2022/06/07 00:10:48;;;;;;;11.50;6.07;;;;;;;;;;4918608;29;20215;-84
2022/06/07 00:13:18;;;;;;;4.50;3.57;;;;;;;;;;4891645;29;20215;-84
2022/06/07 00:15:47;;;;;;;5.70;2.53;;;;;;;;;;4931199;29;20231;-84
2022/06/07 00:18:15;;;;;;;4.33;3.80;;;;;;;;;;4923922;29;20201;-84
2022/06/07 00:20:44;;;;;;;3.90;3.37;;;;;;;;;;4883175;29;20205;-84
2022/06/07 00:23:14;;;;;;;9.70;4.93;;;;;;;;;;4923300;29;20200;-83
2022/06/07 00:25:43;;;;;;;6.03;4.07;;;;;;;;;;4904877;29;20268;-84
2022/06/07 00:28:11;;;;;;;8.20;5.17;;;;;;;;;;4918528;29;20214;-84
2022/06/07 00:30:41;;;;;;;6.93;5.27;;;;;;;;;;4901568;29;20220;-83
2022/06/07 00:33:10;;;;;;;7.03;5.43;;;;;;;;;;4911104;29;20203;-83
2022/06/07 00:35:39;;;;;;;7.03;5.23;;;;;;;;;;4926848;29;20210;-84
2022/06/07 00:38:07;;;;;;;10.40;5.10;;;;;;;;;;4898764;29;20204;-83
2022/06/07 00:40:37;;;;;;;6.53;4.37;;;;;;;;;;4924485;29;20223;-84
2022/06/07 00:43:05;;;;;;;8.23;4.13;;;;;;;;;;4904952;29;20228;-83
2022/06/07 00:45:34;;;;;;;5.43;4.10;;;;;;;;;;4917118;29;20207;-83
2022/06/07 00:48:04;;;;;;;6.83;3.77;;;;;;;;;;4903983;29;20196;-83
2022/06/07 00:50:36;;;;;;;6.50;5.73;;;;;;;;;;4911150;29;20231;-84
2022/06/07 00:53:06;;;;;;;8.93;5.33;;;;;;;;;;4913859;29;20219;-84
2022/06/07 00:55:34;;;;;;;14.80;6.57;;;;;;;;;;4900741;29;20208;-83
2022/06/07 00:58:04;;;;;;;9.30;7.30;;;;;;;;;;4890038;29;20225;-83
2022/06/07 01:00:33;;;;;;;12.23;5.13;;;;;;;;;;4927005;29;20196;-83
2022/06/07 01:03:01;;;;;;;5.57;4.90;;;;;;;;;;4913639;29;20210;-83
2022/06/07 01:05:31;;;;;;;9.30;7.43;;;;;;;;;;4926833;29;20251;-84
2022/06/07 01:10:46;;;;;;;11.77;8.40;;;;;;;;;;4917771;29;20209;-83
2022/06/07 01:13:17;;;;;;;15.93;12.40;;;;;;;;;;4906500;29;20202;-84
2022/06/07 01:15:46;;;;;;;4.33;3.20;;;;;;;;;;4881995;29;20216;-84
2022/06/07 01:18:16;;;;;;;5.83;4.00;;;;;;;;;;4898489;29;20258;-84
2022/06/07 01:20:46;;;;;;;15.70;8.10;;;;;;;;;;4915815;29;20214;-83
2022/06/07 01:23:15;;;;;;;14.87;5.67;;;;;;;;;;4892242;29;20211;-83
2022/06/07 01:25:44;;;;;;;6.87;5.23;;;;;;;;;;4913204;29;20220;-83
2022/06/07 01:28:12;;;;;;;8.13;5.43;;;;;;;;;;4913661;29;20201;-84
2022/06/07 01:30:41;;;;;;;9.57;6.27;;;;;;;;;;4913271;29;20225;-83
2022/06/07 01:33:09;;;;;;;10.23;7.90;;;;;;;;;;4910806;29;20205;-83
2022/06/07 01:35:37;;;;;;;4.63;4.23;;;;;;;;;;4881873;29;20213;-85
2022/06/07 01:38:06;;;;;;;6.03;5.00;;;;;;;;;;4916781;29;20229;-83
2022/06/07 01:43:22;;;;;;;8.63;6.20;;;;;;;;;;4892837;29;20270;-84
2022/06/07 01:45:50;;;;;;;8.23;7.10;;;;;;;;;;4919163;29;20203;-83
2022/06/07 01:48:19;;;;;;;5.97;5.23;;;;;;;;;;4918296;29;20204;-84
2022/06/07 01:50:47;;;;;;;8.37;6.60;;;;;;;;;;4924265;29;20212;-85
2022/06/07 01:53:16;;;;;;;7.60;6.63;;;;;;;;;;4895447;29;20211;-85
2022/06/07 01:55:45;;;;;;;10.77;9.27;;;;;;;;;;4924734;29;20217;-84
2022/06/07 01:58:14;;;;;;;10.90;6.90;;;;;;;;;;4898158;29;20217;-85
2022/06/07 02:00:42;;;;;;;11.40;6.80;;;;;;;;;;4906000;29;20238;-85
2022/06/07 02:03:11;;;;;;;11.53;9.23;;;;;;;;;;4914874;29;20216;-85
2022/06/07 02:05:39;;;;;;;15.17;7.97;;;;;;;;;;4921154;29;20263;-84
2022/06/07 02:08:08;;;;;;;8.47;5.30;;;;;;;;;;4901554;29;20291;-85
2022/06/07 02:10:36;;;;;;;6.57;5.97;;;;;;;;;;4925030;28;20234;-85
2022/06/07 02:13:06;;;;;;;7.47;5.97;;;;;;;;;;4898225;29;20207;-85
2022/06/07 02:15:34;;;;;;;14.07;9.77;;;;;;;;;;4905326;29;20212;-85
2022/06/07 02:18:02;;;;;;;2.90;2.60;;;;;;;;;;4931758;29;20237;-85
2022/06/07 02:20:31;;;;;;;11.47;9.03;;;;;;;;;;4882420;29;20205;-84
2022/06/07 02:22:59;;;;;;;20.13;5.43;;;;;;;;;;4907625;29;20200;-85
2022/06/07 02:25:28;;;;;;;5.03;4.53;;;;;;;;;;4914565;29;20199;-84
2022/06/07 02:27:57;;;;;;;9.10;7.23;;;;;;;;;;4906593;29;20211;-85
2022/06/07 02:30:26;;;;;;;7.63;5.63;;;;;;;;;;4881293;29;20205;-85
2022/06/07 02:32:55;;;;;;;11.93;7.67;;;;;;;;;;4889145;29;20220;-85
2022/06/07 02:35:23;;;;;;;9.47;7.37;;;;;;;;;;4901983;29;20218;-84
2022/06/07 02:37:52;;;;;;;12.73;9.47;;;;;;;;;;4912706;29;20228;-85
2022/06/07 02:40:20;;;;;;;16.37;12.60;;;;;;;;;;4898139;29;20205;-84
2022/06/07 02:42:49;;;;;;;9.37;6.17;;;;;;;;;;4911263;29;20220;-84
2022/06/07 02:45:17;;;;;;;8.80;6.47;;;;;;;;;;4881066;29;20202;-85
2022/06/07 02:47:47;;;;;;;9.53;8.33;;;;;;;;;;4881320;29;20197;-84
2022/06/07 02:50:15;;;;;;;9.07;6.67;;;;;;;;;;4898452;29;20220;-84
2022/06/07 02:52:44;;;;;;;7.47;6.50;;;;;;;;;;4884614;29;20253;-84
2022/06/07 02:55:12;;;;;;;15.23;5.60;;;;;;;;;;4915545;29;20239;-85
2022/06/07 02:57:41;;;;;;;7.57;6.73;;;;;;;;;;4900870;29;20225;-84
2022/06/07 03:00:13;;;;;;;5.27;4.77;;;;;;;;;;4904884;29;20209;-84
2022/06/07 03:02:41;;;;;;;10.17;7.93;;;;;;;;;;4903356;29;20219;-84
2022/06/07 03:05:11;;;;;;;8.17;5.93;;;;;;;;;;4911456;29;20209;-83
2022/06/07 03:07:40;;;;;;;8.17;7.30;;;;;;;;;;4901435;29;20200;-84
2022/06/07 03:10:10;;;;;;;15.27;9.60;;;;;;;;;;4900857;29;20236;-85
2022/06/07 03:12:38;;;;;;;9.13;6.97;;;;;;;;;;4901049;29;20213;-85
2022/06/07 03:15:09;;;;;;;5.67;5.03;;;;;;;;;;4884078;29;20201;-85
2022/06/07 03:17:38;;;;;;;11.13;7.93;;;;;;;;;;4884184;29;20228;-85
2022/06/07 03:20:07;;;;;;;7.07;5.57;;;;;;;;;;4887732;29;20203;-85
2022/06/07 03:22:37;;;;;;;10.33;6.37;;;;;;;;;;4919753;29;20200;-85
2022/06/07 03:25:07;;;;;;;10.60;6.87;;;;;;;;;;4931942;29;20300;-85
2022/06/07 03:27:36;;;;;;;8.93;5.93;;;;;;;;;;4924524;29;20205;-85
2022/06/07 03:30:06;;;;;;;10.60;7.33;;;;;;;;;;4903185;29;20216;-85
2022/06/07 03:32:35;;;;;;;5.30;4.80;;;;;;;;;;4884146;29;20192;-85
2022/06/07 03:35:04;;;;;;;15.53;10.00;;;;;;;;;;4901557;29;20214;-85
2022/06/07 03:37:32;;;;;;;13.70;9.40;;;;;;;;;;4927298;29;20288;-85
2022/06/07 03:40:02;;;;;;;13.43;7.17;;;;;;;;;;4883584;29;20252;-85
2022/06/07 03:42:30;;;;;;;5.80;5.20;;;;;;;;;;4921483;29;20207;-85
2022/06/07 03:44:59;;;;;;;7.77;6.07;;;;;;;;;;4919439;29;20224;-85
2022/06/07 03:47:27;;;;;;;9.03;7.57;;;;;;;;;;4929420;29;20211;-85
2022/06/07 03:49:56;;;;;;;16.40;7.67;;;;;;;;;;4925735;29;20204;-85
2022/06/07 03:52:24;;;;;;;12.60;9.83;;;;;;;;;;4905747;29;20216;-85
2022/06/07 03:54:52;;;;;;;18.83;10.97;;;;;;;;;;4908402;29;20216;-85
2022/06/07 03:57:22;;;;;;;8.70;6.87;;;;;;;;;;4914597;29;20217;-85
2022/06/07 03:59:51;;;;;;;9.10;5.57;;;;;;;;;;4904343;29;20227;-85
2022/06/07 04:02:19;;;;;;;10.03;7.50;;;;;;;;;;4922801;29;20212;-85
2022/06/07 04:04:47;;;;;;;8.37;4.43;;;;;;;;;;4887125;29;20215;-85
2022/06/07 04:10:02;;;;;;;6.53;4.73;;;;;;;;;;4900867;29;20236;-84
2022/06/07 04:12:32;;;;;;;11.47;7.70;;;;;;;;;;4894333;29;20208;-85
2022/06/07 04:15:00;;;;;;;10.17;5.20;;;;;;;;;;4913633;29;20200;-84
2022/06/07 04:17:29;;;;;;;6.50;3.83;;;;;;;;;;4892962;29;20208;-85
2022/06/07 04:19:57;;;;;;;12.37;10.60;;;;;;;;;;4917297;29;20213;-85
2022/06/07 04:22:25;;;;;;;7.33;5.93;;;;;;;;;;4923227;29;20209;-84
2022/06/07 04:24:54;;;;;;;7.37;5.33;;;;;;;;;;4914323;29;20214;-84
2022/06/07 04:27:22;;;;;;;8.43;6.07;;;;;;;;;;4882834;29;20199;-84
2022/06/07 04:29:52;;;;;;;11.43;8.13;;;;;;;;;;4927743;29;20203;-85
2022/06/07 04:32:20;;;;;;;18.83;12.40;;;;;;;;;;4889291;29;20215;-85
2022/06/07 04:34:49;;;;;;;8.37;6.47;;;;;;;;;;4902152;29;20211;-84
2022/06/07 04:37:19;;;;;;;13.40;10.53;;;;;;;;;;4919721;29;20205;-84
2022/06/07 04:39:47;;;;;;;7.10;4.93;;;;;;;;;;4890412;29;20236;-83
2022/06/07 04:42:16;;;;;;;10.57;6.87;;;;;;;;;;4882779;29;20279;-83
2022/06/07 04:44:45;;;;;;;4.90;4.40;;;;;;;;;;4892826;29;20236;-83
2022/06/07 04:47:15;;;;;;;14.33;9.50;;;;;;;;;;4904920;29;20251;-83
2022/06/07 04:49:44;;;;;;;6.10;5.60;;;;;;;;;;4907841;29;20240;-83
2022/06/07 04:52:12;;;;;;;10.10;6.50;;;;;;;;;;4913658;29;20208;-83
2022/06/07 04:54:50;;;;;;;9.00;5.87;;;;;;;;;;4891797;29;20204;-83
2022/06/07 04:57:18;;;;;;;9.67;7.93;;;;;;;;;;4930641;29;20207;-84
2022/06/07 04:59:46;;;;;;;8.23;5.20;;;;;;;;;;4903356;29;20216;-83
2022/06/07 05:02:16;;;;;;;9.20;7.63;;;;;;;;;;4892336;29;20210;-83
2022/06/07 05:04:46;;;;;;;11.17;7.93;;;;;;;;;;4919543;29;20241;-84
2022/06/07 05:07:14;;;;;;;13.70;9.70;;;;;;;;;;4908257;29;20221;-84
2022/06/07 05:09:43;;;;;;;6.80;4.77;;;;;;;;;;4882279;29;20232;-84
2022/06/07 05:12:12;;;;;;;7.27;6.47;;;;;;;;;;4907476;29;20219;-83
2022/06/07 05:14:40;;;;;;;6.87;5.13;;;;;;;;;;4915596;29;20213;-84
2022/06/07 05:17:09;;;;;;;3.83;3.50;;;;;;;;;;4913541;29;20260;-83
2022/06/07 05:19:39;;;;;;;4.43;3.97;;;;;;;;;;4882116;29;20255;-82
2022/06/07 05:22:08;;;;;;;6.17;3.83;;;;;;;;;;4886437;29;20260;-83
2022/06/07 05:24:36;;;;;;;7.33;5.93;;;;;;;;;;4913757;29;20234;-84
2022/06/07 05:27:06;;;;;;;6.27;5.67;;;;;;;;;;4894557;29;20209;-82
2022/06/07 05:29:40;;;;;;;7.13;5.60;;;;;;;;;;4913434;29;20225;-82
2022/06/07 05:32:09;;;;;;;10.83;8.90;;;;;;;;;;4882447;29;20196;-82
2022/06/07 05:34:38;;;;;;;11.47;7.50;;;;;;;;;;4909352;29;20212;-83
2022/06/07 05:37:07;;;;;;;15.23;11.80;;;;;;;;;;4912366;29;20270;-80
2022/06/07 05:39:35;;;;;;;14.13;9.77;;;;;;;;;;4908353;29;20232;-82
2022/06/07 05:42:04;;;;;;;13.17;9.83;;;;;;;;;;4916391;29;20212;-83
2022/06/07 05:44:33;;;;;;;4.83;3.83;;;;;;;;;;4907818;29;20221;-83
2022/06/07 05:47:02;;;;;;;11.57;8.43;;;;;;;;;;4895209;29;20204;-83
2022/06/07 05:49:31;;;;;;;8.07;5.20;;;;;;;;;;4898762;29;20209;-81
2022/06/07 05:52:01;;;;;;;10.43;6.40;;;;;;;;;;4882015;29;20261;-82
2022/06/07 05:54:30;;;;;;;16.10;10.60;;;;;;;;;;4888354;29;20205;-82
2022/06/07 05:56:58;;;;;;;16.20;11.03;;;;;;;;;;4904648;29;20220;-82
2022/06/07 05:59:27;;;;;;;11.23;6.27;;;;;;;;;;4897992;29;20287;-82
2022/06/07 06:01:55;;;;;;;15.30;10.17;;;;;;;;;;4898269;29;20207;-82
2022/06/07 06:04:25;;;;;;;9.17;7.30;;;;;;;;;;4898501;29;20213;-81
2022/06/07 06:06:55;;;;;;;3.87;2.17;;;;;;;;;;4893904;29;20215;-80
2022/06/07 06:12:24;;;;;;;6.97;5.77;;;;;;;;;;4843727;29;20269;-81
2022/06/07 06:14:52;;;;;;;16.63;8.20;;;;;;;;;;4873040;29;20217;-81
2022/06/07 06:17:20;;;;;;;14.63;7.33;;;;;;;;;;4881331;29;20216;-81
2022/06/07 06:19:49;;;;;;;18.03;9.63;;;;;;;;;;4883005;29;20225;-81
2022/06/07 06:22:17;;;;;;;8.20;6.60;;;;;;;;;;4916320;29;20212;-81
2022/06/07 06:24:47;;;;;;;10.27;7.67;;;;;;;;;;4902308;29;20209;-81
2022/06/07 06:27:18;;;;;;;12.03;8.17;;;;;;;;;;4888444;29;20214;-80
2022/06/07 06:29:46;;;;;;;7.17;6.00;;;;;;;;;;4904182;29;20218;-81
2022/06/07 06:32:15;;;;;;;15.23;10.30;;;;;;;;;;4894883;29;20252;-81
2022/06/07 06:34:43;;;;;;;13.43;8.83;;;;;;;;;;4924157;29;20208;-81
2022/06/07 06:37:12;;;;;;;11.60;8.43;;;;;;;;;;4899173;29;20205;-81
2022/06/07 06:39:40;;;;;;;7.67;5.33;;;;;;;;;;4883488;29;20222;-81
2022/06/07 06:42:10;;;;;;;12.70;6.07;;;;;;;;;;4901326;29;20211;-81
2022/06/07 06:44:48;;;;;;;12.50;6.43;;;;;;;;;;4908766;29;20252;-81
2022/06/07 06:47:17;;;;;;;10.43;7.30;;;;;;;;;;4919677;29;20216;-81
2022/06/07 06:49:46;;;;;;;9.30;6.17;;;;;;;;;;4911106;29;20201;-81
2022/06/07 06:52:14;;;;;;;9.47;5.50;;;;;;;;;;4904367;29;20204;-81
2022/06/07 06:54:43;;;;;;;10.70;7.90;;;;;;;;;;4919755;29;20206;-82
2022/06/07 06:57:13;;;;;;;9.40;4.83;;;;;;;;;;4921074;29;20209;-82
2022/06/07 06:59:41;;;;;;;11.30;5.67;;;;;;;;;;4887883;29;20224;-82
2022/06/07 07:02:19;;;;;;;10.57;6.63;;;;;;;;;;4920681;29;20206;-81
2022/06/07 07:04:51;;;;;;;5.30;3.57;;;;;;;;;;4890332;29;20211;-82
2022/06/07 07:07:31;;;;;;;2.87;2.17;;;;;;;;;;4909495;29;20229;-82
2022/06/07 07:10:12;;;;;;;5.87;2.97;;;;;;;;;;4902266;29;20324;-82
2022/06/07 07:12:42;;;;;;;4.67;3.07;;;;;;;;;;4915654;29;20217;-82
2022/06/07 07:15:13;;;;;;;7.00;2.97;;;;;;;;;;4937952;29;20204;-82
2022/06/07 07:17:42;;;;;;;5.77;3.33;;;;;;;;;;4922359;29;20241;-81
2022/06/07 07:20:12;;;;;;;9.43;3.40;;;;;;;;;;4904442;29;20225;-82
2022/06/07 07:22:41;;;;;;;6.60;2.93;;;;;;;;;;4945586;29;20229;-81
2022/06/07 07:25:13;;;;;;;4.73;2.63;;;;;;;;;;4937026;29;20203;-82
2022/06/07 07:27:50;;;;;;;4.07;2.93;;;;;;;;;;4913440;29;20208;-82
2022/06/07 07:30:19;;;;;;;3.40;2.83;;;;;;;;;;4908468;29;20196;-82
2022/06/07 07:32:47;;;;;;;4.27;3.33;;;;;;;;;;4912259;29;20232;-81
2022/06/07 07:35:17;;;;;;;8.13;3.73;;;;;;;;;;4916228;29;20209;-82
2022/06/07 07:37:46;;;;;;;4.40;2.53;;;;;;;;;;4911946;29;20219;-81
2022/06/07 07:40:20;;;;;;;2.27;2.07;;;;;;;;;;4906934;29;20230;-81
2022/06/07 07:42:50;;;;;;;4.90;2.83;;;;;;;;;;4931827;29;20233;-80
2022/06/07 07:45:21;;;;;;;12.67;3.90;;;;;;;;;;4935561;29;20206;-81
2022/06/07 07:47:51;;;;;;;7.23;5.33;;;;;;;;;;4906423;29;20214;-81
2022/06/07 07:50:24;;;;;;;7.40;2.87;;;;;;;;;;4908311;29;20229;-82
2022/06/07 07:52:53;;;;;;;6.27;2.73;;;;;;;;;;4901179;29;20209;-83
2022/06/07 07:55:21;;;;;;;3.37;2.23;;;;;;;;;;4916881;29;20289;-82
2022/06/07 07:57:51;;;;;;;7.93;4.40;;;;;;;;;;4932596;29;20201;-82
2022/06/07 08:00:20;;;;;;;7.67;3.67;;;;;;;;;;4919580;29;20224;-82
2022/06/07 08:02:48;;;;;;;4.03;2.23;;;;;;;;;;4902055;29;20206;-82
2022/06/07 08:05:17;;;;;;;9.73;4.80;;;;;;;;;;4923456;29;20205;-82
2022/06/07 08:07:45;;;;;;;5.97;3.63;;;;;;;;;;4922293;29;20210;-82
2022/06/07 08:10:25;;;;;;;5.80;2.63;;;;;;;;;;4894690;29;20241;-82
2022/06/07 08:12:58;;;;;;;6.77;4.50;;;;;;;;;;4899246;29;20242;-82
2022/06/07 08:15:29;;;;;;;7.70;2.80;;;;;;;;;;4881898;29;20238;-80
2022/06/07 08:17:58;;;;;;;12.53;2.90;;;;;;;;;;4882419;29;20271;-82
2022/06/07 08:20:28;;;;;;;4.13;2.90;;;;;;;;;;4913252;29;20277;-82
2022/06/07 08:22:57;;;;;;;4.13;3.10;;;;;;;;;;4882512;29;20222;-82
2022/06/07 08:25:26;;;;;;;7.33;3.53;;;;;;;;;;4894674;29;20261;-82
2022/06/07 08:27:55;;;;;;;3.07;2.77;;;;;;;;;;4882326;29;20218;-82
2022/06/07 08:30:25;;;;;;;5.40;2.17;;;;;;;;;;4912107;29;20213;-82
2022/06/07 08:32:54;;;;;;;6.73;3.13;;;;;;;;;;4880045;29;20235;-81
2022/06/07 08:38:09;;;;;;;5.80;3.10;;;;;;;;;;4894129;29;20209;-83
2022/06/07 08:40:39;;;;;;;9.17;2.73;;;;;;;;;;4913139;29;20226;-82
2022/06/07 08:43:09;;;;;;;5.47;1.37;;;;;;;;;;4894786;29;20238;-81
2022/06/07 08:45:40;;;;;;;4.60;3.63;;;;;;;;;;4895396;29;20647;-82
2022/06/07 08:48:12;;;;;;;11.20;2.87;;;;;;;;;;4881853;29;20648;-82
2022/06/07 08:50:42;;;;;;;5.60;2.17;;;;;;;;;;4880245;29;20198;-82
2022/06/07 08:53:14;;;;;;;2.63;2.07;;;;;;;;;;4880528;29;20211;-81
2022/06/07 08:55:44;;;;;;;7.03;4.23;;;;;;;;;;4901965;29;20218;-81
2022/06/07 08:58:16;;;;;;;7.50;2.87;;;;;;;;;;4900953;29;20207;-82
2022/06/07 09:00:48;;;;;;;3.77;2.17;;;;;;;;;;4884359;29;20235;-83
2022/06/07 09:03:31;;;;;;;7.20;3.10;;;;;;;;;;4898431;29;20211;-84
2022/06/07 09:06:08;;;;;;;2.93;1.93;;;;;;;;;;4879870;29;20214;-83
2022/06/07 09:08:39;;;;;;;5.37;2.90;;;;;;;;;;4902119;29;20207;-84
2022/06/07 09:14:05;;;;;;;4.03;2.50;;;;;;;;;;4897310;29;20298;-84
2022/06/07 09:16:42;;;;;;;7.50;3.53;;;;;;;;;;4897001;29;20222;-83
2022/06/07 09:19:12;;;;;;;2.63;2.00;;;;;;;;;;4879346;29;20214;-83
2022/06/07 09:21:41;;;;;;;3.60;2.23;;;;;;;;;;4917589;29;20263;-82
2022/06/07 09:24:12;;;;;;;8.73;2.27;;;;;;;;;;4909326;29;20217;-83
2022/06/07 09:26:43;;;;;;;3.43;2.77;;;;;;;;;;4895080;29;20285;-83
2022/06/07 09:29:15;;;;;;;1.57;1.47;;;;;;;;;;4878484;29;20209;-83
2022/06/07 09:31:45;;;;;;;4.10;1.67;;;;;;;;;;4908545;29;20209;-82
2022/06/07 09:34:19;;;;;;;5.03;2.47;;;;;;;;;;4909895;29;20195;-83
2022/06/07 09:36:51;;;;;;;2.33;2.13;;;;;;;;;;4897483;29;20218;-83
2022/06/07 09:39:21;;;;;;;8.03;3.27;;;;;;;;;;4879191;29;20267;-83
2022/06/07 09:41:51;;;;;;;4.10;2.17;;;;;;;;;;4904790;29;20222;-82
2022/06/07 09:47:50;;;;;;;4.43;2.83;;;;;;;;;;4890615;29;20202;-82
2022/06/07 09:50:21;;;;;;;10.03;3.37;;;;;;;;;;4901793;29;20224;-82
2022/06/07 09:52:51;;;;;;;3.73;2.30;;;;;;;;;;4895149;29;20240;-83
2022/06/07 09:55:26;;;;;;;1.97;1.70;;;;;;;;;;4879515;29;20228;-84
2022/06/07 09:58:01;;;;;;;3.83;2.17;;;;;;;;;;4908583;29;20205;-84
2022/06/07 10:00:33;;;;;;;5.70;3.07;;;;;;;;;;4918262;29;20207;-84
2022/06/07 10:03:16;;;;;;;9.30;2.77;;;;;;;;;;4888452;29;20236;-83
2022/06/07 10:05:50;;;;;;;6.40;3.50;;;;;;;;;;4880134;29;20216;-84
2022/06/07 10:08:30;;;;;;;3.70;2.20;;;;;;;;;;4911129;29;20210;-83
2022/06/07 10:11:00;;;;;;;4.33;2.63;;;;;;;;;;4874110;29;20218;-82
2022/06/07 10:13:38;;;;;;;5.17;3.17;;;;;;;;;;4877766;29;20298;-82
2022/06/07 10:16:12;;;;;;;2.03;1.83;;;;;;;;;;4880736;29;20210;-84
2022/06/07 10:18:48;;;;;;;4.40;2.00;;;;;;;;;;4878398;29;20235;-82
2022/06/07 10:21:23;;;;;;;2.43;2.00;;;;;;;;;;4911177;29;20257;-83
2022/06/07 10:23:59;;;;;;;4.97;3.17;;;;;;;;;;4894275;29;20307;-82
2022/06/07 10:26:31;;;;;;;5.03;3.10;;;;;;;;;;4881453;29;20225;-82
2022/06/07 10:29:06;;;;;;;4.70;2.13;;;;;;;;;;4882372;29;20224;-83
2022/06/07 10:31:40;;;;;;;5.57;3.00;;;;;;;;;;4905097;29;20234;-83
2022/06/07 10:37:14;;;;;;;2.83;2.13;;;;;;;;;;4907600;29;20211;-82
2022/06/07 10:39:49;;;;;;;0.80;0.80;;;;;;;;;;4877808;29;20226;-83
2022/06/07 10:42:26;;;;;;;4.20;2.63;;;;;;;;;;4908727;29;20242;-83
2022/06/07 10:44:58;;;;;;;8.50;6.10;;;;;;;;;;4909351;29;20260;-82
2022/06/07 10:47:29;;;;;;;4.73;3.23;;;;;;;;;;4910963;29;20220;-81
2022/06/07 10:50:00;;;;;;;4.33;2.77;;;;;;;;;;4913646;29;20282;-82
2022/06/07 10:52:33;;;;;;;9.73;4.17;;;;;;;;;;4880257;29;20206;-82
2022/06/07 10:55:06;;;;;;;10.90;5.60;;;;;;;;;;4878567;29;20220;-81
2022/06/07 10:57:38;;;;;;;2.60;2.40;;;;;;;;;;4894531;29;20207;-82
2022/06/07 11:00:19;;;;;;;3.47;3.17;;;;;;;;;;4895728;29;20221;-82
2022/06/07 11:03:00;;;;;;;5.03;3.43;;;;;;;;;;4904927;29;20227;-83
2022/06/07 11:11:03;;;;;;;12.83;3.13;;;;;;;;;;4910170;29;20207;-81
2022/06/07 11:13:35;;;;;;;7.33;4.97;;;;;;;;;;4929890;29;20199;-82
2022/06/07 11:16:09;;;;;;;4.67;3.60;;;;;;;;;;4925273;29;20297;-84
2022/06/07 11:18:41;;;;;;;5.37;4.93;;;;;;;;;;4929730;29;20340;-82
2022/06/07 11:21:12;;;;;;;3.13;2.60;;;;;;;;;;4898486;29;20289;-82
2022/06/07 11:23:47;;;;;;;4.67;3.67;;;;;;;;;;4926852;29;20235;-80
2022/06/07 11:26:17;;;;;;;5.43;3.83;;;;;;;;;;4910696;29;20203;-84
2022/06/07 11:28:48;;;;;;;3.50;3.20;;;;;;;;;;4926014;29;20215;-83
2022/06/07 11:31:26;;;;;;;5.43;4.07;;;;;;;;;;4923950;29;20274;-80
2022/06/07 11:34:05;;;;;;;6.63;4.50;;;;;;;;;;4899829;29;20215;-80
2022/06/07 11:36:37;;;;;;;5.53;3.83;;;;;;;;;;4897767;29;20214;-79
2022/06/07 11:39:28;;;;;;;6.47;4.87;;;;;;;;;;4914895;29;20219;-82
2022/06/07 11:41:59;;;;;;;6.53;3.73;;;;;;;;;;4895741;29;20233;-81
2022/06/07 11:44:41;;;;;;;3.23;2.90;;;;;;;;;;4896251;29;20227;-81
2022/06/07 11:47:25;;;;;;;4.37;3.47;;;;;;;;;;4896147;29;20222;-82
2022/06/07 11:49:58;;;;;;;6.60;3.63;;;;;;;;;;4924910;29;20300;-81
2022/06/07 11:52:28;;;;;;;1.57;1.47;;;;;;;;;;4913418;29;20271;-80
2022/06/07 11:54:58;;;;;;;7.30;1.80;;;;;;;;;;4924045;29;20211;-81
2022/06/07 11:58:00;;;;;;;5.60;3.07;;;;;;;;;;4923948;29;20290;-85
2022/06/07 12:00:41;;;;;;;2.17;1.67;;;;;;;;;;4928002;29;20211;-81
2022/06/07 12:03:25;;;;;;;8.20;3.90;;;;;;;;;;4906748;29;20235;-82
2022/06/07 12:05:55;;;;;;;8.03;4.80;;;;;;;;;;4897691;29;20220;-83
2022/06/07 12:08:26;;;;;;;9.33;4.60;;;;;;;;;;4922580;29;20208;-83
2022/06/07 12:11:00;;;;;;;6.80;4.43;;;;;;;;;;4924718;29;20261;-82
2022/06/07 12:16:32;;;;;;;6.30;3.77;;;;;;;;;;4891187;29;20263;-83
2022/06/07 12:19:05;;;;;;;6.77;4.03;;;;;;;;;;4906650;29;20214;-82
2022/06/07 12:21:35;;;;;;;5.73;4.47;;;;;;;;;;4924091;29;20208;-83
2022/06/07 12:24:11;;;;;;;2.97;2.70;;;;;;;;;;4924222;29;20222;-83
2022/06/07 12:26:39;;;;;;;6.10;5.17;;;;;;;;;;4925298;29;20257;-83
2022/06/07 12:29:20;;;;;;;4.33;2.93;;;;;;;;;;4896473;29;20259;-83
2022/06/07 12:31:54;;;;;;;4.20;3.57;;;;;;;;;;4927272;29;20213;-83
2022/06/07 12:34:24;;;;;;;7.13;2.87;;;;;;;;;;4924660;29;20241;-83
2022/06/07 12:36:54;;;;;;;5.07;4.60;;;;;;;;;;4932457;28;20202;-83
2022/06/07 12:39:23;;;;;;;4.77;3.63;;;;;;;;;;4902181;29;20315;-84
2022/06/07 12:41:54;;;;;;;9.00;4.67;;;;;;;;;;4914586;29;20211;-83
2022/06/07 12:44:31;;;;;;;5.57;4.20;;;;;;;;;;4931193;28;20242;-83
2022/06/07 12:47:01;;;;;;;9.10;5.40;;;;;;;;;;4931972;29;20206;-84
2022/06/07 12:49:42;;;;;;;6.13;4.87;;;;;;;;;;4905534;29;20209;-83
2022/06/07 12:52:15;;;;;;;6.97;3.90;;;;;;;;;;4924159;29;20209;-83
2022/06/07 12:54:48;;;;;;;3.80;3.37;;;;;;;;;;4937370;29;20207;-85
2022/06/07 12:57:19;;;;;;;5.47;4.93;;;;;;;;;;4915824;29;20203;-84
2022/06/07 12:59:52;;;;;;;7.63;5.37;;;;;;;;;;4915180;29;20210;-85
2022/06/07 13:02:23;;;;;;;5.87;3.33;;;;;;;;;;4905264;29;20203;-84
2022/06/07 13:04:57;;;;;;;7.73;4.93;;;;;;;;;;4917902;29;20201;-82
2022/06/07 13:07:27;;;;;;;4.13;3.07;;;;;;;;;;4938052;29;20207;-84
2022/06/07 13:10:13;;;;;;;10.77;5.90;;;;;;;;;;4919139;29;20242;-84
2022/06/07 13:12:45;;;;;;;5.57;4.27;;;;;;;;;;4897101;29;20281;-85
2022/06/07 13:15:17;;;;;;;4.67;3.17;;;;;;;;;;4917002;29;20207;-83
2022/06/07 13:18:01;;;;;;;4.77;3.67;;;;;;;;;;4910147;29;20219;-84
2022/06/07 13:20:32;;;;;;;7.07;4.77;;;;;;;;;;4910159;29;20211;-84
2022/06/07 13:23:01;;;;;;;8.07;5.53;;;;;;;;;;4896323;29;20218;-84
2022/06/07 13:25:31;;;;;;;6.40;5.03;;;;;;;;;;4879380;29;20231;-84
2022/06/07 13:28:01;;;;;;;4.63;4.23;;;;;;;;;;4899155;29;20231;-83
2022/06/07 13:30:38;;;;;;;4.00;3.67;;;;;;;;;;4891410;29;20263;-84
2022/06/07 13:33:29;;;;;;;2.63;2.43;;;;;;;;;;4890342;29;20212;-85
2022/06/07 13:35:58;;;;;;;7.27;3.50;;;;;;;;;;4905175;29;20261;-83
2022/06/07 13:38:29;;;;;;;5.30;3.57;;;;;;;;;;4870834;29;20204;-83
2022/06/07 13:41:02;;;;;;;5.80;5.27;;;;;;;;;;4888425;29;20218;-84
2022/06/07 13:43:31;;;;;;;6.13;3.83;;;;;;;;;;4885727;29;20244;-84
2022/06/07 13:46:05;;;;;;;5.33;4.33;;;;;;;;;;4889062;29;20212;-84
2022/06/07 13:54:15;;;;;;;8.70;3.77;;;;;;;;;;4914697;29;20208;-82
2022/06/07 13:56:44;;;;;;;4.90;4.17;;;;;;;;;;4894614;29;20263;-82
2022/06/07 13:59:15;;;;;;;5.53;5.03;;;;;;;;;;4871482;29;20214;-83
2022/06/07 14:01:49;;;;;;;4.97;3.50;;;;;;;;;;4900153;29;20290;-83
2022/06/07 14:04:22;;;;;;;6.47;4.87;;;;;;;;;;4903779;29;20226;-85
2022/06/07 14:06:51;;;;;;;3.97;3.40;;;;;;;;;;4890940;29;20282;-83
2022/06/07 14:09:21;;;;;;;6.23;4.53;;;;;;;;;;4882043;29;20423;-86
2022/06/07 14:11:56;;;;;;;6.47;3.53;;;;;;;;;;4904750;29;20203;-84
2022/06/07 14:14:25;;;;;;;7.57;3.13;;;;;;;;;;4907037;29;20299;-83
2022/06/07 14:16:57;;;;;;;6.00;3.10;;;;;;;;;;4904453;29;20222;-83
2022/06/07 14:19:29;;;;;;;4.43;3.37;;;;;;;;;;4892874;29;20227;-84
2022/06/07 14:21:58;;;;;;;8.17;2.40;;;;;;;;;;4893061;29;20221;-84
2022/06/07 14:24:29;;;;;;;5.03;2.67;;;;;;;;;;4908712;29;20212;-84
2022/06/07 14:26:57;;;;;;;4.40;3.17;;;;;;;;;;4908410;29;20199;-83
2022/06/07 14:29:26;;;;;;;2.70;2.03;;;;;;;;;;4897754;29;20220;-84
2022/06/07 14:31:56;;;;;;;3.50;3.13;;;;;;;;;;4898904;29;20330;-84
2022/06/07 14:34:25;;;;;;;4.77;2.90;;;;;;;;;;4908959;29;20334;-84
2022/06/07 14:36:59;;;;;;;5.03;2.77;;;;;;;;;;4891456;29;20287;-83
2022/06/07 14:39:31;;;;;;;3.80;3.43;;;;;;;;;;4906860;29;20401;-84
2022/06/07 14:42:00;;;;;;;4.30;2.73;;;;;;;;;;4875641;29;20303;-83
2022/06/07 14:44:29;;;;;;;2.47;2.27;;;;;;;;;;4906713;29;20216;-83
2022/06/07 14:46:59;;;;;;;2.83;2.47;;;;;;;;;;4876351;29;20207;-83
2022/06/07 14:49:31;;;;;;;5.57;3.33;;;;;;;;;;4906600;29;20211;-84
2022/06/07 14:52:00;;;;;;;2.83;2.37;;;;;;;;;;4905802;29;20280;-85
2022/06/07 14:54:34;;;;;;;4.00;2.50;;;;;;;;;;4890276;29;20205;-83
2022/06/07 14:57:10;;;;;;;2.80;2.60;;;;;;;;;;4903484;29;20269;-84
2022/06/07 14:59:39;;;;;;;5.77;3.17;;;;;;;;;;4902528;29;20208;-85
2022/06/07 15:02:13;;;;;;;3.13;2.10;;;;;;;;;;4881069;29;20208;-84
2022/06/07 15:04:45;;;;;;;2.40;2.20;;;;;;;;;;4903142;29;20276;-82
2022/06/07 15:07:19;;;;;;;5.10;3.13;;;;;;;;;;4890313;29;20206;-83
2022/06/07 15:09:47;;;;;;;1.83;1.50;;;;;;;;;;4900740;29;20266;-82
2022/06/07 15:12:16;;;;;;;5.33;2.97;;;;;;;;;;4915146;29;20291;-83
2022/06/07 15:14:47;;;;;;;3.13;2.27;;;;;;;;;;4909720;29;20199;-83
2022/06/07 15:17:18;;;;;;;3.53;1.93;;;;;;;;;;4895668;29;20231;-82
2022/06/07 15:19:47;;;;;;;4.20;2.43;;;;;;;;;;4929919;29;20210;-82
2022/06/07 15:22:16;;;;;;;2.67;2.47;;;;;;;;;;4894887;29;20218;-84
2022/06/07 15:24:45;;;;;;;3.13;2.13;;;;;;;;;;4916770;29;20262;-82
2022/06/07 15:27:15;;;;;;;1.93;1.40;;;;;;;;;;4915424;29;20210;-83
2022/06/07 15:29:52;;;;;;;1.92;1.48;;;;;;;;;;4907877;29;20495;-81
2022/06/07 15:32:25;;;;;;;2.43;1.67;;;;;;;;;;4909295;29;20210;-81
2022/06/07 15:35:01;;;;;;;3.20;2.17;;;;;;;;;;4927895;29;20235;-81
2022/06/07 15:37:30;;;;;;;1.90;1.80;;;;;;;;;;4928237;29;20222;-80
2022/06/07 15:39:58;;;;;;;6.67;2.67;;;;;;;;;;4908432;29;20217;-81